createdAt,value
2018-09-22T00:01:56.530Z,90.20
2018-09-22T00:04:25.614Z,90.40
2018-09-22T00:06:55.439Z,90.00
2018-09-22T00:09:23.652Z,90.40
2018-09-22T00:11:52.182Z,90.10
2018-09-22T00:14:21.613Z,89.50
2018-09-22T00:16:50.257Z,89.40
2018-09-22T00:19:18.860Z,89.50
2018-09-22T00:21:48.667Z,89.30
2018-09-22T00:24:16.920Z,89.10
2018-09-22T00:26:45.545Z,89.00
2018-09-22T00:29:14.344Z,88.50
2018-09-22T00:31:43.833Z,88.30
2018-09-22T00:34:12.457Z,88.60
2018-09-22T00:36:40.985Z,88.60
2018-09-22T00:39:10.810Z,89.00
2018-09-22T00:41:39.363Z,89.10
2018-09-22T00:44:08.015Z,88.70
2018-09-22T00:46:37.563Z,88.30
2018-09-22T00:49:06.093Z,88.40
2018-09-22T00:51:34.719Z,89.10
2018-09-22T00:54:03.325Z,88.40
2018-09-22T00:56:37.617Z,89.40
2018-09-22T00:59:06.875Z,90.10
2018-09-22T01:01:35.741Z,90.20
2018-09-22T01:04:04.358Z,90.10
2018-09-22T01:06:33.012Z,90.10
2018-09-22T01:09:07.517Z,89.60
2018-09-22T01:11:36.834Z,90.00
2018-09-22T01:14:06.185Z,90.10
2018-09-22T01:16:34.720Z,90.40
2018-09-22T01:19:03.353Z,90.10
2018-09-22T01:21:31.913Z,89.90
2018-09-22T01:26:35.125Z,89.40
2018-09-22T01:29:03.747Z,89.40
2018-09-22T01:31:33.488Z,89.30
2018-09-22T01:34:03.011Z,88.90
2018-09-22T01:36:31.636Z,89.00
2018-09-22T01:39:00.366Z,88.60
2018-09-22T01:41:29.084Z,89.00
2018-09-22T01:43:57.808Z,88.80
2018-09-22T01:46:26.432Z,88.80
2018-09-22T01:48:55.311Z,88.90
2018-09-22T01:51:23.730Z,88.90
2018-09-22T01:53:52.742Z,88.50
2018-09-22T01:56:21.068Z,87.90
2018-09-22T01:58:49.917Z,87.00
2018-09-22T02:01:18.452Z,87.00
2018-09-22T02:03:47.113Z,86.50
2018-09-22T02:06:15.856Z,86.30
2018-09-22T02:08:44.545Z,86.40
2018-09-22T02:11:14.652Z,86.50
2018-09-22T02:13:42.979Z,86.20
2018-09-22T02:16:11.881Z,86.00
2018-09-22T02:18:40.444Z,86.30
2018-09-22T02:21:10.081Z,86.10
2018-09-22T02:23:38.850Z,85.60
2018-09-22T02:26:07.592Z,86.10
2018-09-22T02:28:36.612Z,86.30
2018-09-22T02:31:10.519Z,85.60
2018-09-22T02:33:39.529Z,86.10
2018-09-22T02:36:08.509Z,86.40
2018-09-22T02:38:37.149Z,87.00
2018-09-22T02:41:05.792Z,88.90
2018-09-22T02:43:34.613Z,87.60
2018-09-22T02:46:09.673Z,86.60
2018-09-22T02:48:37.911Z,86.10
2018-09-22T02:52:09.675Z,86.50
2018-09-22T02:54:39.025Z,86.90
2018-09-22T02:57:07.794Z,88.00
2018-09-22T02:59:42.721Z,87.60
2018-09-22T03:02:11.095Z,88.50
2018-09-22T03:04:39.829Z,87.50
2018-09-22T03:09:43.015Z,87.60
2018-09-22T03:12:11.557Z,88.40
2018-09-22T03:14:40.095Z,87.80
2018-09-22T03:17:08.875Z,87.20
2018-09-22T03:19:38.104Z,87.80
2018-09-22T03:22:06.720Z,87.20
2018-09-22T03:24:35.257Z,86.90
2018-09-22T03:27:09.360Z,86.70
2018-09-22T03:29:38.408Z,87.50
2018-09-22T03:32:12.666Z,86.80
2018-09-22T03:34:41.698Z,86.40
2018-09-22T03:37:10.233Z,86.60
2018-09-22T03:39:39.052Z,86.50
2018-09-22T03:42:07.380Z,86.30
2018-09-22T03:44:36.434Z,86.10
2018-09-22T03:49:51.351Z,86.30
2018-09-22T03:52:20.104Z,86.40
2018-09-22T03:54:48.811Z,86.10
2018-09-22T03:57:17.432Z,85.60
2018-09-22T03:59:46.063Z,85.60
2018-09-22T04:02:20.157Z,85.70
2018-09-22T04:04:52.693Z,85.70
2018-09-22T04:07:20.904Z,86.00
2018-09-22T04:09:49.665Z,85.70
2018-09-22T04:12:21.473Z,85.40
2018-09-22T04:14:50.020Z,85.40
2018-09-22T04:17:18.661Z,85.30
2018-09-22T04:19:47.405Z,85.90
2018-09-22T04:22:15.977Z,85.60
2018-09-22T04:24:44.593Z,85.60
2018-09-22T04:27:13.313Z,85.70
2018-09-22T04:29:44.952Z,85.60
2018-09-22T04:32:13.558Z,85.90
2018-09-22T04:34:42.115Z,85.80
2018-09-22T04:37:10.775Z,85.90
2018-09-22T04:39:39.592Z,85.80
2018-09-22T04:42:20.468Z,85.80
2018-09-22T04:44:49.027Z,85.70
2018-09-22T04:47:17.533Z,85.70
2018-09-22T04:52:20.760Z,84.80
2018-09-22T04:54:49.479Z,84.60
2018-09-22T04:57:18.053Z,84.80
2018-09-22T04:59:46.684Z,84.10
2018-09-22T05:02:15.293Z,84.50
2018-09-22T05:04:43.897Z,84.30
2018-09-22T05:07:12.456Z,84.00
2018-09-22T05:09:41.100Z,83.50
2018-09-22T05:12:09.836Z,83.10
2018-09-22T05:14:44.029Z,83.30
2018-09-22T05:17:13.310Z,83.50
2018-09-22T05:19:41.852Z,83.80
2018-09-22T05:22:11.821Z,83.50
2018-09-22T05:24:40.951Z,83.40
2018-09-22T05:27:09.659Z,82.70
2018-09-22T05:29:46.724Z,82.90
2018-09-22T05:32:15.052Z,82.10
2018-09-22T05:34:43.669Z,82.90
2018-09-22T05:37:14.740Z,82.30
2018-09-22T05:39:42.997Z,82.80
2018-09-22T05:42:11.637Z,82.60
2018-09-22T05:44:40.503Z,83.00
2018-09-22T05:47:15.691Z,83.40
2018-09-22T05:49:46.266Z,83.10
2018-09-22T05:52:14.466Z,82.90
2018-09-22T05:54:43.013Z,82.80
2018-09-22T05:57:11.585Z,83.20
2018-09-22T05:59:43.593Z,83.20
2018-09-22T06:02:11.957Z,83.50
2018-09-22T06:04:40.586Z,82.80
2018-09-22T06:07:10.350Z,83.00
2018-09-22T06:09:39.091Z,82.70
2018-09-22T06:12:07.780Z,83.00
2018-09-22T06:14:36.297Z,83.30
2018-09-22T06:17:04.982Z,83.00
2018-09-22T06:19:33.729Z,83.10
2018-09-22T06:22:02.377Z,82.70
2018-09-22T06:24:36.385Z,83.10
2018-09-22T06:27:05.817Z,82.30
2018-09-22T06:29:34.497Z,82.30
2018-09-22T06:32:03.015Z,82.90
2018-09-22T06:34:31.666Z,82.20
2018-09-22T06:37:00.639Z,82.50
2018-09-22T06:39:28.971Z,82.30
2018-09-22T06:41:57.591Z,82.00
2018-09-22T06:44:26.432Z,82.00
2018-09-22T06:46:54.973Z,82.10
2018-09-22T06:49:23.569Z,81.70
2018-09-22T06:51:52.139Z,81.90
2018-09-22T06:54:22.085Z,81.50
2018-09-22T06:56:51.247Z,81.40
2018-09-22T06:59:19.778Z,81.90
2018-09-22T07:01:49.657Z,81.40
2018-09-22T07:04:18.793Z,81.90
2018-09-22T07:06:47.346Z,80.90
2018-09-22T07:09:19.553Z,81.70
2018-09-22T07:11:47.759Z,81.40
2018-09-22T07:14:16.476Z,81.50
2018-09-22T07:16:45.164Z,81.00
2018-09-22T07:19:13.688Z,79.70
2018-09-22T07:21:47.825Z,80.00
2018-09-22T07:24:16.149Z,79.90
2018-09-22T07:26:45.184Z,81.00
2018-09-22T07:29:14.009Z,81.70
2018-09-22T07:31:42.436Z,80.50
2018-09-22T07:34:11.464Z,80.50
2018-09-22T07:39:14.631Z,80.10
2018-09-22T07:41:43.300Z,80.30
2018-09-22T07:44:11.873Z,80.10
2018-09-22T07:46:45.792Z,80.70
2018-09-22T07:49:14.851Z,79.80
2018-09-22T07:51:43.379Z,80.20
2018-09-22T07:54:12.218Z,79.70
2018-09-22T07:56:40.952Z,80.70
2018-09-22T07:59:09.720Z,77.70
2018-09-22T08:01:38.682Z,76.90
2018-09-22T08:04:07.817Z,78.10
2018-09-22T08:06:36.974Z,75.70
2018-09-22T08:09:08.031Z,77.30
2018-09-22T08:11:39.374Z,76.90
2018-09-22T08:14:08.762Z,75.90
2018-09-22T08:16:37.405Z,75.80
2018-09-22T08:19:06.040Z,74.50
2018-09-22T08:21:35.052Z,76.50
2018-09-22T08:24:08.872Z,75.10
2018-09-22T08:26:42.338Z,75.00
2018-09-22T08:29:11.894Z,75.30
2018-09-22T08:31:41.088Z,76.10
2018-09-22T08:34:09.789Z,73.60
2018-09-22T08:36:38.852Z,74.90
2018-09-22T08:39:09.532Z,72.80
2018-09-22T08:41:38.161Z,72.50
2018-09-22T08:44:07.029Z,71.90
2018-09-22T08:46:35.773Z,70.30
2018-09-22T08:49:04.845Z,72.10
2018-09-22T08:51:33.721Z,71.40
2018-09-22T08:54:02.395Z,72.30
2018-09-22T08:56:30.909Z,73.20
2018-09-22T08:58:59.740Z,72.90
2018-09-22T09:01:28.134Z,72.30
2018-09-22T09:04:03.891Z,72.50
2018-09-22T09:06:35.845Z,69.40
2018-09-22T09:09:07.060Z,72.20
2018-09-22T09:11:35.841Z,70.50
2018-09-22T09:14:04.403Z,70.30
2018-09-22T09:16:33.197Z,71.30
2018-09-22T09:19:01.642Z,70.70
2018-09-22T09:21:30.127Z,70.00
2018-09-22T09:23:58.644Z,70.10
2018-09-22T09:26:27.468Z,70.10
2018-09-22T09:28:56.089Z,69.20
2018-09-22T09:31:24.722Z,69.20
2018-09-22T09:33:53.337Z,69.00
2018-09-22T09:36:22.037Z,70.90
2018-09-22T09:39:00.306Z,67.10
2018-09-22T09:41:29.393Z,67.50
2018-09-22T09:43:57.928Z,68.30
2018-09-22T09:46:26.465Z,68.00
2018-09-22T09:48:55.036Z,69.50
2018-09-22T09:51:23.885Z,69.50
2018-09-22T09:53:52.387Z,66.10
2018-09-22T09:56:20.929Z,66.80
2018-09-22T09:58:49.879Z,66.50
2018-09-22T10:01:18.358Z,67.10
2018-09-22T10:03:46.998Z,68.40
2018-09-22T10:06:15.814Z,68.20
2018-09-22T10:08:44.453Z,67.60
2018-09-22T10:11:13.149Z,69.10
2018-09-22T10:13:41.797Z,67.20
2018-09-22T10:16:10.513Z,66.10
2018-09-22T10:18:39.248Z,66.10
2018-09-22T10:21:13.274Z,68.60
2018-09-22T10:23:42.466Z,68.20
2018-09-22T10:26:11.007Z,68.60
2018-09-22T10:28:39.738Z,66.70
2018-09-22T10:31:08.461Z,68.20
2018-09-22T10:33:37.151Z,67.30
2018-09-22T10:36:05.688Z,66.50
2018-09-22T10:38:34.318Z,68.00
2018-09-22T10:41:02.982Z,68.10
2018-09-22T10:43:31.622Z,68.20
2018-09-22T10:46:00.436Z,69.00
2018-09-22T10:48:30.126Z,68.40
2018-09-22T10:50:59.203Z,68.00
2018-09-22T10:53:27.525Z,67.40
2018-09-22T10:55:56.152Z,68.90
2018-09-22T11:00:59.400Z,69.40
2018-09-22T11:03:28.068Z,68.40
2018-09-22T11:06:08.564Z,68.50
2018-09-22T11:08:37.148Z,68.70
2018-09-22T11:11:05.888Z,68.30
2018-09-22T11:13:37.781Z,67.90
2018-09-22T11:16:12.551Z,66.70
2018-09-22T11:18:41.678Z,66.80
2018-09-22T11:21:10.208Z,65.60
2018-09-22T11:23:39.075Z,67.80
2018-09-22T11:26:07.730Z,67.40
2018-09-22T11:28:36.277Z,68.40
2018-09-22T11:31:05.231Z,67.20
2018-09-22T11:33:33.609Z,67.20
2018-09-22T11:36:02.300Z,67.90
2018-09-22T11:38:31.136Z,68.40
2018-09-22T11:40:59.520Z,68.00
2018-09-22T11:43:28.078Z,65.20
2018-09-22T11:45:56.814Z,66.90
2018-09-22T11:48:25.545Z,66.10
2018-09-22T11:50:53.970Z,66.90
2018-09-22T11:53:22.694Z,67.70
2018-09-22T11:55:57.803Z,66.50
2018-09-22T11:58:27.180Z,68.10
2018-09-22T12:00:55.916Z,66.20
2018-09-22T12:03:26.037Z,67.50
2018-09-22T12:05:54.405Z,67.10
2018-09-22T12:08:22.866Z,67.40
2018-09-22T12:10:51.580Z,67.90
2018-09-22T12:13:20.119Z,65.30
2018-09-22T12:15:49.166Z,65.90
2018-09-22T12:18:17.891Z,66.50
2018-09-22T12:20:46.473Z,67.60
2018-09-22T12:23:15.014Z,66.60
2018-09-22T12:25:43.617Z,67.40
2018-09-22T12:28:12.120Z,67.00
2018-09-22T12:30:40.724Z,67.20
2018-09-22T12:33:09.341Z,67.10
2018-09-22T12:35:37.864Z,67.00
2018-09-22T12:38:07.085Z,68.50
2018-09-22T12:40:35.523Z,68.20
2018-09-22T12:43:04.344Z,67.90
2018-09-22T12:45:33.112Z,67.10
2018-09-22T12:48:01.739Z,67.60
2018-09-22T12:50:30.469Z,68.00
2018-09-22T12:52:59.239Z,67.60
2018-09-22T12:55:27.601Z,67.30
2018-09-22T12:57:56.321Z,67.10
2018-09-22T13:00:24.782Z,67.10
2018-09-22T13:02:53.421Z,67.40
2018-09-22T13:05:22.171Z,65.50
2018-09-22T13:07:50.845Z,66.50
2018-09-22T13:10:20.872Z,66.90
2018-09-22T13:12:49.198Z,67.50
2018-09-22T13:15:17.861Z,67.60
2018-09-22T13:17:46.513Z,66.80
2018-09-22T13:20:15.165Z,67.30
2018-09-22T13:22:44.228Z,68.50
2018-09-22T13:25:12.664Z,68.50
2018-09-22T13:27:41.301Z,68.20
2018-09-22T13:30:10.002Z,67.30
2018-09-22T13:32:39.901Z,67.00
2018-09-22T13:35:08.558Z,68.70
2018-09-22T13:37:37.181Z,68.40
2018-09-22T13:40:06.009Z,67.70
2018-09-22T13:42:35.056Z,66.50
2018-09-22T13:45:03.486Z,66.30
2018-09-22T13:47:32.114Z,66.50
2018-09-22T13:50:00.855Z,66.00
2018-09-22T13:52:29.503Z,66.50
2018-09-22T13:54:58.951Z,65.50
2018-09-22T13:57:28.033Z,67.50
2018-09-22T13:59:56.601Z,65.80
2018-09-22T14:02:25.325Z,67.40
2018-09-22T14:04:53.944Z,67.30
2018-09-22T14:07:22.664Z,65.20
2018-09-22T14:09:51.396Z,67.20
2018-09-22T14:12:20.016Z,67.00
2018-09-22T14:14:48.570Z,67.40
2018-09-22T14:17:17.209Z,67.50
2018-09-22T14:19:45.748Z,66.60
2018-09-22T14:22:14.556Z,66.80
2018-09-22T14:24:44.405Z,68.20
2018-09-22T14:27:13.171Z,68.60
2018-09-22T14:29:41.481Z,68.20
2018-09-22T14:32:10.081Z,66.80
2018-09-22T14:34:38.736Z,68.00
2018-09-22T14:37:07.577Z,67.60
2018-09-22T14:39:36.218Z,68.10
2018-09-22T14:42:04.693Z,68.00
2018-09-22T14:44:33.257Z,67.90
2018-09-22T14:47:02.041Z,67.40
2018-09-22T14:49:30.660Z,66.50
2018-09-22T14:51:59.212Z,69.00
2018-09-22T14:54:27.967Z,67.60
2018-09-22T14:56:56.596Z,67.70
2018-09-22T14:59:25.479Z,67.80
2018-09-22T15:01:54.036Z,66.10
2018-09-22T15:04:22.461Z,66.80
2018-09-22T15:06:51.980Z,67.90
2018-09-22T15:10:46.206Z,67.90
2018-09-22T15:13:15.320Z,68.70
2018-09-22T15:15:43.835Z,68.40
2018-09-22T15:18:12.324Z,68.10
2018-09-22T15:20:41.026Z,68.70
2018-09-22T15:23:09.672Z,68.40
2018-09-22T15:25:38.236Z,69.50
2018-09-22T15:28:06.948Z,68.60
2018-09-22T15:30:35.655Z,68.80
2018-09-22T15:33:04.267Z,68.80
2018-09-22T15:35:32.777Z,67.90
2018-09-22T15:38:01.609Z,69.80
2018-09-22T15:40:30.240Z,69.60
2018-09-22T15:42:58.756Z,69.20
2018-09-22T15:45:28.626Z,68.90
2018-09-22T15:47:57.287Z,69.10
2018-09-22T15:50:25.776Z,69.50
2018-09-22T15:52:54.424Z,70.20
2018-09-22T15:55:23.069Z,69.50
2018-09-22T15:57:52.085Z,70.30
2018-09-22T16:00:20.323Z,70.20
2018-09-22T16:02:53.322Z,69.70
2018-09-22T16:05:22.553Z,69.70
2018-09-22T16:07:51.340Z,70.60
2018-09-22T16:10:20.030Z,70.50
2018-09-22T16:12:48.691Z,70.80
2018-09-22T16:15:21.539Z,70.80
2018-09-22T16:17:50.030Z,71.00
2018-09-22T16:20:18.565Z,70.90
2018-09-22T16:22:47.137Z,71.20
2018-09-22T16:25:16.745Z,70.80
2018-09-22T16:27:45.214Z,71.50
2018-09-22T16:30:13.943Z,71.60
2018-09-22T16:32:42.461Z,71.90
2018-09-22T16:35:11.133Z,72.10
2018-09-22T16:37:39.687Z,72.30
2018-09-22T16:40:08.333Z,72.50
2018-09-22T16:42:36.856Z,72.60
2018-09-22T16:45:05.853Z,73.00
2018-09-22T16:47:34.568Z,72.70
2018-09-22T16:50:03.329Z,73.10
2018-09-22T16:52:31.990Z,73.00
2018-09-22T16:55:00.728Z,73.00
2018-09-22T16:57:29.359Z,73.20
2018-09-22T16:59:58.097Z,73.30
2018-09-22T17:02:26.639Z,73.40
2018-09-22T17:04:55.298Z,73.40
2018-09-22T17:07:25.128Z,73.30
2018-09-22T17:09:54.353Z,73.40
2018-09-22T17:12:23.075Z,73.80
2018-09-22T17:14:51.543Z,73.90
2018-09-22T17:17:20.205Z,74.20
2018-09-22T17:19:49.064Z,74.50
2018-09-22T17:22:17.795Z,75.30
2018-09-22T17:24:46.433Z,75.60
2018-09-22T17:27:14.910Z,76.70
2018-09-22T17:29:43.837Z,77.40
2018-09-22T17:32:13.443Z,77.30
2018-09-22T17:34:42.321Z,76.70
2018-09-22T17:37:10.833Z,76.70
2018-09-22T17:39:39.358Z,76.50
2018-09-22T17:42:08.049Z,76.10
2018-09-22T17:44:37.722Z,76.60
2018-09-22T17:47:06.727Z,76.50
2018-09-22T17:49:35.880Z,76.80
2018-09-22T17:52:05.179Z,76.60
2018-09-22T17:54:33.547Z,77.10
2018-09-22T17:57:02.121Z,77.10
2018-09-22T17:59:30.792Z,76.80
2018-09-22T18:01:59.952Z,77.00
2018-09-22T18:04:28.162Z,76.90
2018-09-22T18:06:56.781Z,77.00
2018-09-22T18:09:25.233Z,76.90
2018-09-22T18:11:53.926Z,76.90
2018-09-22T18:14:22.640Z,77.40
2018-09-22T18:16:51.411Z,77.60
2018-09-22T18:19:19.884Z,77.90
2018-09-22T18:21:48.748Z,78.60
2018-09-22T18:24:17.305Z,78.70
2018-09-22T18:26:45.843Z,78.50
2018-09-22T18:29:14.556Z,79.50
2018-09-22T18:31:43.189Z,78.90
2018-09-22T18:34:11.924Z,79.50
2018-09-22T18:36:40.614Z,78.80
2018-09-22T18:39:09.557Z,79.30
2018-09-22T18:41:37.999Z,79.20
2018-09-22T18:44:06.660Z,78.80
2018-09-22T18:46:35.097Z,80.30
2018-09-22T18:49:03.953Z,79.40
2018-09-22T18:51:33.755Z,79.20
2018-09-22T18:54:02.089Z,79.00
2018-09-22T18:56:30.789Z,79.20
2018-09-22T18:58:59.523Z,78.70
2018-09-22T19:01:29.156Z,80.40
2018-09-22T19:03:57.779Z,81.40
2018-09-22T19:06:26.405Z,80.80
2018-09-22T19:08:55.120Z,80.70
2018-09-22T19:11:23.748Z,80.40
2018-09-22T19:13:56.829Z,81.10
2018-09-22T19:16:30.521Z,81.30
2018-09-22T19:19:01.340Z,80.60
2018-09-22T19:21:35.252Z,81.00
2018-09-22T19:24:07.052Z,80.70
2018-09-22T19:26:40.477Z,82.70
2018-09-22T19:29:19.378Z,80.80
2018-09-22T19:31:58.721Z,81.50
2018-09-22T19:34:31.120Z,81.70
2018-09-22T19:37:03.188Z,82.00
2018-09-22T19:39:37.740Z,83.00
2018-09-22T19:44:15.314Z,82.50
2018-09-22T19:46:50.157Z,81.60
2018-09-22T19:49:24.066Z,83.20
2018-09-22T19:51:59.022Z,82.60
2018-09-22T19:54:27.956Z,84.40
2018-09-22T19:56:56.573Z,84.20
2018-09-22T19:59:25.434Z,82.70
2018-09-22T20:01:54.408Z,85.00
2018-09-22T20:04:22.642Z,85.00
2018-09-22T20:06:51.436Z,85.10
2018-09-22T20:09:20.149Z,85.00
2018-09-22T20:11:48.781Z,86.10
2018-09-22T20:14:17.680Z,86.10
2018-09-22T20:16:46.193Z,85.80
2018-09-22T20:19:15.191Z,86.20
2018-09-22T20:21:45.004Z,85.50
2018-09-22T20:24:13.942Z,86.00
2018-09-22T20:26:42.506Z,85.80
2018-09-22T20:29:11.069Z,86.50
2018-09-22T20:31:39.654Z,86.10
2018-09-22T20:34:08.442Z,86.10
2018-09-22T20:36:36.888Z,86.00
2018-09-22T20:39:08.545Z,87.30
2018-09-22T20:44:12.347Z,86.70
2018-09-22T20:46:46.458Z,85.50
2018-09-22T20:49:15.530Z,86.20
2018-09-22T20:51:44.051Z,86.20
2018-09-22T20:55:37.202Z,85.60
2018-09-22T20:58:05.789Z,86.50
2018-09-22T21:00:34.341Z,87.30
2018-09-22T21:03:02.961Z,86.60
2018-09-22T21:05:31.784Z,87.20
2018-09-22T21:08:00.121Z,86.40
2018-09-22T21:10:28.753Z,87.60
2018-09-22T21:12:57.344Z,87.50
2018-09-22T21:15:26.981Z,86.40
2018-09-22T21:17:55.754Z,86.20
2018-09-22T21:20:25.273Z,86.20
2018-09-22T21:22:53.716Z,86.20
2018-09-22T21:25:22.237Z,86.20
2018-09-22T21:27:50.860Z,87.30
2018-09-22T21:30:19.676Z,86.20
2018-09-22T21:32:49.603Z,87.20
2018-09-22T21:35:19.133Z,85.30
2018-09-22T21:37:47.671Z,85.70
2018-09-22T21:40:16.405Z,86.90
2018-09-22T21:42:45.071Z,87.10
2018-09-22T21:45:13.713Z,86.60
2018-09-22T21:47:42.608Z,87.10
2018-09-22T21:50:11.029Z,86.50
2018-09-22T21:52:39.475Z,85.90
2018-09-22T21:55:08.377Z,86.30
2018-09-22T21:57:36.723Z,87.20
2018-09-22T22:00:05.518Z,86.20
2018-09-22T22:02:34.187Z,87.20
2018-09-22T22:05:02.701Z,87.20
2018-09-22T22:07:31.382Z,87.40
2018-09-22T22:10:00.993Z,87.20
2018-09-22T22:12:29.832Z,87.00
2018-09-22T22:14:59.552Z,87.50
2018-09-22T22:17:27.860Z,88.10
2018-09-22T22:19:56.673Z,87.20
2018-09-22T22:22:26.297Z,88.30
2018-09-22T22:24:55.089Z,87.80
2018-09-22T22:27:23.697Z,87.20
2018-09-22T22:29:52.365Z,86.40
2018-09-22T22:32:20.881Z,87.60
2018-09-22T22:34:49.568Z,86.50
2018-09-22T22:37:18.898Z,87.00
2018-09-22T22:39:48.457Z,86.20
2018-09-22T22:42:17.349Z,86.20
2018-09-22T22:44:46.282Z,86.50
2018-09-22T22:47:16.192Z,86.80
2018-09-22T22:49:44.767Z,86.10
2018-09-22T22:52:13.268Z,86.10
2018-09-22T22:54:42.854Z,86.30
2018-09-22T22:57:11.473Z,85.90
2018-09-22T22:59:40.180Z,86.20
2018-09-22T23:02:08.817Z,86.80
2018-09-22T23:04:37.885Z,86.10
2018-09-22T23:08:35.640Z,86.00
2018-09-22T23:11:04.782Z,86.10
2018-09-22T23:13:33.396Z,85.70
2018-09-22T23:16:02.150Z,85.70
2018-09-22T23:18:30.629Z,86.40
2018-09-22T23:20:59.421Z,85.90
2018-09-22T23:23:27.901Z,86.50
2018-09-22T23:25:56.596Z,86.80
2018-09-22T23:28:25.326Z,86.40
2018-09-22T23:30:53.954Z,87.00
2018-09-22T23:33:22.673Z,87.10
2018-09-22T23:35:51.343Z,87.50
2018-09-22T23:38:19.777Z,86.90
2018-09-22T23:40:48.438Z,87.40
2018-09-22T23:43:17.002Z,87.20
2018-09-22T23:45:45.640Z,87.10
2018-09-22T23:48:14.396Z,87.30
2018-09-22T23:50:42.993Z,86.60
2018-09-22T23:53:11.717Z,86.90
2018-09-22T23:55:41.736Z,86.90
2018-09-22T23:58:10.141Z,87.30
